Ana Sayfa
METAR-TAF:

METAR-TAF

Havaalanları :

Agadez, Nijer

Enlem: 16-58N, Boylam: 007-59E, yükseklik: 501 m

Güncel hava durumu gözlemi

Rapor saat 14:00 UTC de 43 dakika önce yapıldı.
Rüzgar batı/güneybatıdan 9 kt
Sıcaklık 42°C
Nem 18%
Basınç 1009 hPa
Görüş mesafesi: 7000 m
4000 ft yükseklikte az bulutlu, Kümülonimbus.

METAR: DRZA 251400Z 24009KT 7000 FEW040CB 42/13 Q1009

Saat: 15:43 (14:43 UTC)

Tahmin

Rapor saat 11:00 UTC de 3 saat ve 43 dakika önce yapıldı.
Ayın 25'si saat 12 UTC'den ayın 26'si saat 12 UTC'ye kadar geçerli Tahmin
Rüzgar batıdan 8 kt
Görüş mesafesi: 7000 m
Olasılık 40%
ayın 25'si saat 14 UTC'den ayın 25'si saat 20 UTC'ye kadar
Rüzgar değişken yönden 20 kt ve 35 kt'a kadar ani rüzgarlar
Görüş mesafesi: 2000 m
3000 ft yükseklikte parçalı bulutlu
4000 ft yükseklikte az bulutlu, Kümülonimbus.
Bora, Savrulan toz, gök gürültülü fırtına, yağmur,

TAF: DRZA 251100Z 2512/2612 28008KT 7000 NSC PROB40 2514/2520 VRB20G35KT 2000 SQ BLDU TSRA SCT030 FEW040CB

4.000'den fazla havaalanı için hava durumu gözlemleri ve tahminleri (METAR ve TAF raporları).

Kullanılabilir istasyonlar harita üzerinde sarı ve kırmızı noktalarla gösterilir.

İstasyonun adını görmek için fareyi noktanın üzerinde gezdirin.

Sonrasında hava gözlem ve tahminlerini görmek için tıklayın.

Haritayı değiştirmek için: yaklaştırmak için siyah artı işaretli yeşil düğmeye ve uzaklaştırmak için de eksi işaretli düğmeye hızla tıklayın; bitişik haritalar için yeşil okları kullanın.


METAR-TAF: